Main page
METAR-TAF:

METAR-TAF

Airports :

Sam Ratulangi International Airport

Manado, Indonesia

latitude: 01-32N, longitude: 124-55E, elevation: 80 m

Current weather observation

The report was made 1 hour and 56 minutes ago, at 16:00 UTC
Wind 3 kt from variable directions
Temperature 25°C
Humidity 100%
Pressure 1010 hPa
Visibility: 9000 m
Scattered clouds at a height of 2100 ft

METAR: WAMM 091600Z VRB03KT 9000 SCT021 25/25 Q1010 NOSIG

Time: 00:56 (17:56 UTC)

Forecast

The report was made 56 minutes ago, at 17:00 UTC
Forecast valid from 09 at 18 UTC to 10 at 24 UTC
Wind 3 kt from the East/Southeast
Visibility: 9000 m
Scattered clouds at a height of 2200 ft
Probability 40% :
Temporary
from 09 at 18 UTC to 09 at 22 UTC
Visibility: 5000 m
Few clouds at a height of 1600 ft, Cumulonimbus.
rain
Becoming
from 09 at 23 UTC to 10 at 01 UTC
Wind 10 kt from the West

TAF: WAMM 091700Z 0918/1024 11003KT 9000 SCT022 PROB40 TEMPO 0918/0922 5000 RA FEW016CB BECMG 0923/1001 28010KT

Weather observations and forecasts of more than 4000 airports (METAR and TAF reports).

The available stations are represented by yellow and red dots on the map.

Hover mouse over dot to see the name of the station.

Then click to see weather observations and forecasts.

To change the map : click on the green buttons with a black cross to zoom in, on the green button with a dash to zoom out, or on the green arrows for adjacent maps.


METAR-TAF: